createdAt,value
2016-12-06T12:19:55.348Z,22.81
2016-12-06T12:20:35.886Z,22.25
2016-12-06T12:21:16.466Z,22.43
2016-12-06T12:21:57.024Z,22.62
2016-12-06T12:22:37.713Z,21.95
2016-12-06T12:23:18.253Z,22.43
2016-12-06T12:23:58.857Z,23.2
2016-12-06T12:24:40.023Z,23.58
2016-12-06T12:25:20.651Z,23.1
2016-12-06T12:26:01.191Z,23.58
2016-12-06T12:26:41.992Z,23.78
2016-12-06T12:27:22.510Z,23.39
2016-12-06T12:28:03.255Z,23.49
2016-12-06T12:28:43.576Z,23.39
2016-12-06T12:29:24.495Z,23.78
2016-12-06T12:30:05.148Z,23
2016-12-06T12:30:45.793Z,23.3
2016-12-06T12:31:27.140Z,23.68
2016-12-06T12:32:07.678Z,24.35
2016-12-06T12:32:48.260Z,23.68
2016-12-06T12:33:29.471Z,23.97
2016-12-06T12:34:10.253Z,23.87
2016-12-06T12:34:51.259Z,23.87
2016-12-06T12:35:32.335Z,23.58
2016-12-06T12:36:12.855Z,23.78
2016-12-06T12:36:53.418Z,23.68
2016-12-06T12:37:33.970Z,23.68
2016-12-06T12:38:14.794Z,23.3
2016-12-06T12:38:55.505Z,24.45
2016-12-06T12:41:14.589Z,23.97
2016-12-06T12:41:55.279Z,24.45
2016-12-06T12:42:35.811Z,23.58
2016-12-06T12:43:16.340Z,22.52
2016-12-06T12:43:56.914Z,22.33
2016-12-06T12:44:37.450Z,22.05
2016-12-06T12:45:17.983Z,22.33
2016-12-06T12:45:58.552Z,23.3
2016-12-06T12:46:39.562Z,23.87
2016-12-06T12:47:20.088Z,24.35
2016-12-06T12:48:00.718Z,23.67
2016-12-06T12:48:41.293Z,22.61
2016-12-06T12:49:21.846Z,21.94
2016-12-06T12:50:02.437Z,21.94
2016-12-06T12:50:43.641Z,21.84
2016-12-06T12:51:25.493Z,21.94
2016-12-06T12:52:06.719Z,22.03
2016-12-06T12:52:47.254Z,22.99
2016-12-06T12:53:27.796Z,22.42
2016-12-06T12:54:08.364Z,22.61
2016-12-06T12:54:48.898Z,22.32
2016-12-06T12:55:29.434Z,23.38
2016-12-06T12:56:10.000Z,23.38
2016-12-06T12:56:50.647Z,23.38
2016-12-06T12:57:31.226Z,22.42
2016-12-06T12:58:11.755Z,22.61
2016-12-06T12:58:52.297Z,22.13
2016-12-06T12:59:32.840Z,22.03
2016-12-06T13:00:13.376Z,21.55
2016-12-06T13:00:53.972Z,21.65
2016-12-06T13:01:34.542Z,20.88
2016-12-06T13:02:15.008Z,21.26
2016-12-06T13:02:55.568Z,20.97
2016-12-06T13:03:36.131Z,21.07
2016-12-06T13:04:16.741Z,21.26
2016-12-06T13:04:57.309Z,20.5
2016-12-06T13:05:38.852Z,21.26
2016-12-06T13:06:19.428Z,20.5
2016-12-06T13:07:00.153Z,20.78
2016-12-06T13:07:40.685Z,21.17
2016-12-06T13:08:21.232Z,20.68
2016-12-06T13:09:01.829Z,21.36
2016-12-06T13:09:42.376Z,21.26
2016-12-06T13:10:22.982Z,20.88
2016-12-06T13:11:03.503Z,20.88
2016-12-06T13:11:44.033Z,20.4
2016-12-06T13:12:24.679Z,20.59
2016-12-06T13:13:05.204Z,20.88
2016-12-06T13:13:45.822Z,21.07
2016-12-06T13:14:26.340Z,21.27
2016-12-06T13:15:06.895Z,20.89
2016-12-06T13:15:47.492Z,20.6
2016-12-06T13:16:28.020Z,20.4
2016-12-06T13:17:08.634Z,20.2
2016-12-06T13:17:49.166Z,20.3
2016-12-06T13:18:29.688Z,20.3
2016-12-06T13:19:10.361Z,19.92
2016-12-06T13:19:50.939Z,19.92
2016-12-06T13:20:31.601Z,19.72
2016-12-06T13:21:12.115Z,19.92
2016-12-06T13:21:52.655Z,20.11
2016-12-06T13:22:33.349Z,19.92
2016-12-06T13:23:13.884Z,19.82
2016-12-06T13:23:54.444Z,19.82
2016-12-06T13:24:35.044Z,20.11
2016-12-06T13:25:15.747Z,20.11
2016-12-06T13:25:56.375Z,19.92
2016-12-06T13:26:37.159Z,19.15
2016-12-06T13:27:17.693Z,19.43
2016-12-06T13:27:58.256Z,19.43
2016-12-06T13:28:38.846Z,20.4
2016-12-06T13:29:19.998Z,21.94
2016-12-06T13:30:00.608Z,22.24
2016-12-06T13:30:41.193Z,22.91
2016-12-06T13:31:21.705Z,21.66
2016-12-06T13:32:02.284Z,21.37
2016-12-06T13:32:42.814Z,21.85
2016-12-06T13:33:23.440Z,22.81
2016-12-06T13:34:03.970Z,23.68
2016-12-06T13:34:44.734Z,23.97
2016-12-06T13:35:25.242Z,23.2
2016-12-06T13:36:05.821Z,23.49
2016-12-06T13:36:46.427Z,23.68
2016-12-06T13:37:26.982Z,21.66
2016-12-06T13:38:07.520Z,23.39
2016-12-06T13:38:48.051Z,23.3
2016-12-06T13:39:28.719Z,23.68
2016-12-06T13:40:09.894Z,22.52
2016-12-06T13:40:50.487Z,23.69
2016-12-06T13:42:37.980Z,25.9
2016-12-06T13:43:18.790Z,24.35
2016-12-06T13:43:59.439Z,23.68
2016-12-06T13:44:39.989Z,23.3
2016-12-06T13:45:20.535Z,23
2016-12-06T13:46:02.088Z,23.3
2016-12-06T13:46:42.728Z,22.24
2016-12-06T13:47:23.291Z,22.52
2016-12-06T13:48:03.876Z,23.39
2016-12-06T13:48:47.597Z,23.39
2016-12-06T13:49:28.490Z,24.85
2016-12-06T13:50:09.188Z,25.04
2016-12-06T13:50:50.725Z,24.65
2016-12-06T13:51:31.391Z,22.43
2016-12-06T13:52:12.379Z,22.43
2016-12-06T13:52:52.998Z,21.86
2016-12-06T13:53:34.102Z,21.75
2016-12-06T13:54:14.634Z,22.24
2016-12-06T13:54:55.604Z,23.5
2016-12-06T13:55:36.397Z,21.86
2016-12-06T13:56:17.076Z,21.96
2016-12-06T13:56:58.440Z,22.63
2016-12-06T13:57:39.140Z,23.79
2016-12-06T13:59:37.580Z,23.02
2016-12-06T14:00:18.457Z,23.31
2016-12-06T14:00:59.185Z,23.02
2016-12-06T14:01:39.860Z,23.69
2016-12-06T14:02:20.833Z,24.37
2016-12-06T14:03:01.518Z,23.69
2016-12-06T14:03:42.051Z,24.08
2016-12-06T14:04:22.948Z,24.85
2016-12-06T14:05:04.337Z,23.79
2016-12-06T14:05:45.436Z,23.98
2016-12-06T14:06:26.296Z,23.98
2016-12-06T14:08:14.146Z,25.13
2016-12-06T14:08:55.734Z,24.85
2016-12-06T14:09:36.276Z,23.11
2016-12-06T14:10:17.228Z,23.5
2016-12-06T14:10:58.071Z,22.63
2016-12-06T14:11:38.601Z,22.44
2016-12-06T14:13:37.594Z,22.25
2016-12-06T14:14:18.163Z,21.58
2016-12-06T14:14:58.718Z,22.44
2016-12-06T14:15:39.251Z,22.53
2016-12-06T14:16:19.800Z,23.21
2016-12-06T14:17:00.370Z,23.11
2016-12-06T14:17:41.868Z,23.79
2016-12-06T14:18:22.369Z,23.69
2016-12-06T14:19:02.913Z,23.02
2016-12-06T14:19:43.428Z,22.34
2016-12-06T14:20:23.953Z,22.05
2016-12-06T14:21:04.472Z,22.53
2016-12-06T14:22:57.119Z,23.69
2016-12-06T14:23:37.663Z,23.5
2016-12-06T14:24:18.159Z,22.92
2016-12-06T14:24:58.694Z,23.31
2016-12-06T14:25:39.256Z,22.05
2016-12-06T14:26:20.170Z,21.48
2016-12-06T14:27:00.840Z,21.67
2016-12-06T14:27:41.470Z,21.67
2016-12-06T14:28:23.410Z,21.28
2016-12-06T14:29:04.338Z,21.19
2016-12-06T14:29:45.602Z,21.67
2016-12-06T14:30:26.253Z,21.38
2016-12-06T14:31:06.810Z,21.67
2016-12-06T14:31:47.342Z,20.51
2016-12-06T14:32:28.174Z,21.77
2016-12-06T14:33:08.732Z,21
2016-12-06T14:33:49.268Z,21.28
2016-12-06T14:34:31.042Z,21.38
2016-12-06T14:35:11.885Z,22.25
2016-12-06T14:35:52.440Z,21.38
2016-12-06T14:36:33.176Z,21.28
2016-12-06T14:38:21.117Z,22.44
2016-12-06T14:39:02.302Z,22.25
2016-12-06T14:39:43.405Z,21.77
2016-12-06T14:40:24.064Z,21.38
2016-12-06T14:41:05.345Z,21.67
2016-12-06T14:41:47.994Z,21.18
2016-12-06T14:42:28.653Z,21.38
2016-12-06T14:43:09.182Z,21.95
2016-12-06T14:43:49.730Z,21.95
2016-12-06T14:44:30.283Z,22.24
2016-12-06T14:45:10.892Z,21.85
2016-12-06T14:45:51.498Z,22.05
2016-12-06T14:46:32.322Z,21.85
2016-12-06T14:47:12.903Z,21.95
2016-12-06T14:47:55.998Z,22.05
2016-12-06T14:48:39.543Z,21.95
2016-12-06T14:49:20.187Z,21.95
2016-12-06T14:50:00.736Z,21.85
2016-12-06T14:50:41.407Z,21.95
2016-12-06T14:51:22.200Z,21.56
2016-12-06T14:52:02.887Z,21.66
2016-12-06T14:52:45.146Z,21.66
2016-12-06T14:53:25.678Z,21.94
2016-12-06T14:54:06.189Z,21.94
2016-12-06T14:54:46.732Z,21.55
2016-12-06T14:55:27.265Z,22.03
2016-12-06T14:56:07.887Z,22.05
2016-12-06T14:56:48.400Z,21.66
2016-12-06T14:57:28.904Z,22.05
2016-12-06T14:58:09.413Z,21.27
2016-12-06T14:58:50.008Z,21.37
2016-12-06T14:59:30.621Z,21.75
2016-12-06T15:00:11.230Z,21.56
2016-12-06T15:00:51.898Z,22.14
2016-12-06T15:01:32.447Z,21.95
2016-12-06T15:02:13.693Z,21.18
2016-12-06T15:02:54.220Z,21.65
2016-12-06T15:03:34.761Z,21.17
2016-12-06T15:04:15.277Z,21.17
2016-12-06T15:04:55.849Z,21.17
2016-12-06T15:05:36.813Z,21.07
2016-12-06T15:06:17.710Z,21.07
2016-12-06T15:06:58.362Z,21.26
2016-12-06T15:07:39.022Z,21.07
2016-12-06T15:08:22.165Z,20.97
2016-12-06T15:09:02.550Z,21.07
2016-12-06T15:09:43.411Z,21.07
2016-12-06T15:10:23.864Z,20.97
2016-12-06T15:11:04.404Z,20.88
2016-12-06T15:11:44.950Z,21.75
2016-12-06T15:12:25.468Z,21.07
2016-12-06T15:13:06.003Z,20.59
2016-12-06T15:13:46.497Z,20.68
2016-12-06T15:14:27.199Z,20.88
2016-12-06T15:15:07.782Z,21.17
2016-12-06T15:15:48.485Z,20.97
2016-12-06T15:16:28.856Z,21.07
2016-12-06T15:17:09.389Z,21.07
2016-12-06T15:17:49.923Z,21.07
2016-12-06T15:18:30.449Z,20.88
2016-12-06T15:19:10.988Z,20.59
2016-12-06T15:19:51.592Z,20.4
2016-12-06T15:20:32.124Z,20.3
2016-12-06T15:21:12.690Z,20.68
2016-12-06T15:21:53.202Z,20.2
2016-12-06T15:22:33.745Z,20.2
2016-12-06T15:23:14.267Z,20.31
2016-12-06T15:23:56.079Z,20.78
2016-12-06T15:24:36.627Z,20.4
2016-12-06T15:25:17.235Z,21.47
2016-12-06T15:25:57.768Z,20.98
2016-12-06T15:28:10.595Z,20.6
2016-12-06T15:28:51.134Z,20.89
2016-12-06T15:29:31.672Z,21.18
2016-12-06T15:30:12.279Z,21.85
2016-12-06T15:30:52.826Z,21.85
2016-12-06T15:31:33.454Z,22.05
2016-12-06T15:32:14.002Z,22.33
2016-12-06T15:32:54.565Z,21.47
2016-12-06T15:33:35.125Z,21.66
2016-12-06T15:34:15.967Z,21.08
2016-12-06T15:34:56.735Z,21.08
2016-12-06T15:35:37.282Z,20.98
2016-12-06T15:36:17.792Z,22.05
2016-12-06T15:36:58.372Z,22.05
2016-12-06T15:37:38.944Z,20.98
2016-12-06T15:38:19.463Z,21.08
2016-12-06T15:39:00.019Z,21.27
2016-12-06T15:39:40.580Z,21.37
2016-12-06T15:40:21.121Z,21.37
2016-12-06T15:41:01.669Z,21.56
2016-12-06T15:41:42.238Z,21.66
2016-12-06T15:42:22.951Z,21.47
2016-12-06T15:43:03.609Z,20.6
2016-12-06T15:43:44.330Z,21.07
2016-12-06T15:44:24.969Z,22.24
2016-12-06T15:45:05.563Z,21.85
2016-12-06T15:45:51.496Z,22.14
2016-12-06T15:46:32.097Z,21.37
2016-12-06T15:47:12.640Z,20.79
2016-12-06T15:47:53.227Z,20.89
2016-12-06T15:48:35.083Z,20.79
2016-12-06T15:49:16.313Z,21.56
2016-12-06T15:49:57.122Z,21.18
2016-12-06T15:50:37.693Z,21.18
2016-12-06T15:51:18.244Z,20.79
2016-12-06T15:51:59.311Z,20.79
2016-12-06T15:52:40.338Z,21.18
2016-12-06T15:53:20.880Z,21.47
2016-12-06T15:54:01.412Z,21.18
2016-12-06T15:54:41.943Z,21.08
2016-12-06T15:55:22.519Z,20.89
2016-12-06T15:56:03.067Z,20.6
2016-12-06T15:56:43.598Z,20.79
2016-12-06T15:57:24.258Z,20.6
2016-12-06T15:58:04.801Z,21.18
2016-12-06T15:58:45.333Z,21.08
2016-12-06T15:59:25.927Z,21.56
2016-12-06T16:00:06.640Z,22.05
2016-12-06T16:00:48.141Z,21.27
2016-12-06T16:01:28.691Z,21.27
2016-12-06T16:02:09.192Z,21.56
2016-12-06T16:02:49.914Z,23.58
2016-12-06T16:03:30.459Z,22.43
2016-12-06T16:04:10.980Z,21.66
2016-12-06T16:04:51.521Z,21.95
2016-12-06T16:05:32.092Z,22.05
2016-12-06T16:06:12.646Z,22.14
2016-12-06T16:06:53.313Z,21.95
2016-12-06T16:07:33.793Z,21.56
2016-12-06T16:08:14.299Z,21.58
2016-12-06T16:08:54.934Z,21.38
2016-12-06T16:09:35.475Z,22.25
2016-12-06T16:10:16.007Z,22.72
2016-12-06T16:10:56.542Z,21.56
2016-12-06T16:11:37.077Z,21.19
2016-12-06T16:12:17.650Z,21.77
2016-12-06T16:12:58.206Z,20.8
2016-12-06T16:13:38.726Z,20.5
2016-12-06T16:14:19.272Z,20.7
2016-12-06T16:14:59.780Z,20.79
2016-12-06T16:15:40.306Z,21.66
2016-12-06T16:16:20.848Z,21.58
2016-12-06T16:17:01.369Z,20.6
2016-12-06T16:17:41.906Z,20.79
2016-12-06T16:18:22.449Z,21.08
2016-12-06T16:19:02.988Z,21.37
2016-12-06T16:19:43.571Z,21.75
2016-12-06T16:20:24.152Z,21.38
2016-12-06T16:21:04.694Z,21.28
2016-12-06T16:21:45.726Z,21.38
2016-12-06T16:22:26.262Z,21.38
2016-12-06T16:23:06.798Z,21.28
2016-12-06T16:23:47.325Z,22.34
2016-12-06T16:24:27.832Z,21.58
2016-12-06T16:25:08.371Z,21.77
2016-12-06T16:25:48.911Z,21.77
2016-12-06T16:26:29.448Z,21.47
2016-12-06T16:27:09.979Z,21.48
2016-12-06T16:27:50.527Z,21.75
2016-12-06T16:28:31.189Z,21.18
2016-12-06T16:29:11.785Z,21.75
2016-12-06T16:29:52.326Z,21.58
2016-12-06T16:30:32.889Z,21.08
2016-12-06T16:31:13.427Z,21.37
2016-12-06T16:31:53.969Z,21.08
2016-12-06T16:32:34.527Z,20.98
2016-12-06T16:33:15.063Z,20.89
2016-12-06T16:33:55.591Z,21.18
2016-12-06T16:34:36.129Z,20.98
2016-12-06T16:35:16.639Z,20.89
2016-12-06T16:35:57.229Z,21.38
2016-12-06T16:36:37.785Z,21.27
2016-12-06T16:37:18.309Z,21.37
2016-12-06T16:37:58.826Z,20.89
2016-12-06T16:38:39.369Z,21.08
2016-12-06T16:39:19.897Z,21.18
2016-12-06T16:40:00.433Z,21.47
2016-12-06T16:40:40.978Z,21.27
2016-12-06T16:41:21.514Z,21.75
2016-12-06T16:42:02.066Z,21.37
2016-12-06T16:42:42.595Z,21.37
2016-12-06T16:43:23.125Z,21.95
2016-12-06T16:44:03.662Z,21.56
2016-12-06T16:44:44.204Z,21.85
2016-12-06T16:45:24.736Z,21.85
2016-12-06T16:46:05.314Z,21.66
2016-12-06T16:46:46.032Z,21.95
2016-12-06T16:47:26.560Z,21.95
2016-12-06T16:48:07.092Z,21.85
2016-12-06T16:48:47.630Z,22.33
2016-12-06T16:49:28.136Z,22.05
2016-12-06T16:50:08.716Z,22.05
2016-12-06T16:50:49.360Z,21.75
2016-12-06T16:51:29.888Z,21.95
2016-12-06T16:52:10.402Z,22.05
2016-12-06T16:52:50.932Z,21.95
2016-12-06T16:53:31.647Z,21.95
2016-12-06T16:54:12.284Z,22.33
2016-12-06T16:54:53.052Z,22.33
2016-12-06T16:55:33.875Z,22.33
2016-12-06T16:57:32.458Z,21.95
2016-12-06T16:59:46.355Z,22.43
2016-12-06T17:00:26.885Z,22.33
2016-12-06T17:01:07.426Z,21.95
2016-12-06T17:01:47.940Z,21.75
2016-12-06T17:02:28.494Z,21.75
2016-12-06T17:03:09.053Z,21.56
2016-12-06T17:03:49.599Z,21.85
2016-12-06T17:04:30.125Z,22.05
2016-12-06T17:05:10.659Z,21.85
2016-12-06T17:05:51.189Z,22.14
2016-12-06T17:06:31.718Z,21.95
2016-12-06T17:07:12.250Z,21.75
2016-12-06T17:07:52.767Z,22.05
2016-12-06T17:08:33.313Z,22.14
2016-12-06T17:09:13.908Z,22.44
2016-12-06T17:09:54.444Z,21.95
2016-12-06T17:10:34.973Z,22.43
2016-12-06T17:11:15.496Z,22.05
2016-12-06T17:11:56.064Z,21.37
2016-12-06T17:12:36.620Z,21.18
2016-12-06T17:13:17.153Z,21.58
2016-12-06T17:13:57.733Z,21.85
2016-12-06T17:14:38.306Z,22.34
2016-12-06T17:15:18.837Z,22.05
2016-12-06T17:15:59.356Z,22.52
2016-12-06T17:16:39.901Z,23.4
2016-12-06T17:17:20.430Z,21.77
2016-12-06T17:18:00.967Z,21.86
2016-12-06T17:18:41.553Z,21.19
2016-12-06T17:19:22.127Z,21.77
2016-12-06T17:20:03.005Z,22.44
2016-12-06T17:20:43.732Z,21.38
2016-12-06T17:21:24.281Z,22.44
2016-12-06T17:22:04.806Z,22.44
2016-12-06T17:22:45.345Z,21.38
2016-12-06T17:23:25.870Z,21.38
2016-12-06T17:24:06.403Z,21.58
2016-12-06T17:24:46.944Z,22.92
2016-12-06T17:25:27.478Z,23.11
2016-12-06T17:26:08.004Z,23.5
2016-12-06T17:26:48.554Z,22.15
2016-12-06T17:27:29.093Z,21.58
2016-12-06T17:28:09.622Z,21.86
2016-12-06T17:28:50.209Z,21.67
2016-12-06T17:29:30.739Z,21.77
2016-12-06T17:30:11.290Z,22.34
2016-12-06T17:30:51.804Z,22.53
2016-12-06T17:31:32.319Z,21.28
2016-12-06T17:32:12.856Z,21.48
2016-12-06T17:32:53.406Z,21.38
2016-12-06T17:33:33.920Z,21.58
2016-12-06T17:34:14.455Z,21.67
2016-12-06T17:34:54.999Z,22.34
2016-12-06T17:35:35.532Z,22.73
2016-12-06T17:36:16.053Z,21.86
2016-12-06T17:36:56.646Z,22.15
2016-12-06T17:37:37.216Z,21.58
2016-12-06T17:38:17.779Z,22.15
2016-12-06T17:38:58.313Z,22.15
2016-12-06T17:39:38.829Z,21.86
2016-12-06T17:40:19.347Z,21.86
2016-12-06T17:40:59.880Z,22.63
2016-12-06T17:41:40.412Z,22.44
2016-12-06T17:42:20.937Z,22.83
2016-12-06T17:43:01.460Z,22.15
2016-12-06T17:43:42.038Z,22.34
2016-12-06T17:44:22.580Z,23.31
2016-12-06T17:45:03.116Z,23.88
2016-12-06T17:45:43.650Z,22.92
2016-12-06T17:46:24.222Z,24.37
2016-12-06T17:47:04.751Z,23.5
2016-12-06T17:47:45.297Z,23.11
2016-12-06T17:48:25.830Z,22.53
2016-12-06T17:49:06.399Z,22.34
2016-12-06T17:49:46.917Z,22.53
2016-12-06T17:50:27.452Z,22.44
2016-12-06T17:51:08.003Z,21.86
2016-12-06T17:51:48.560Z,21.96
2016-12-06T17:52:29.086Z,21.96
2016-12-06T17:53:09.619Z,22.15
2016-12-06T17:53:50.160Z,21.96
2016-12-06T17:54:30.699Z,22.63
2016-12-06T17:55:11.231Z,22.15
2016-12-06T17:55:51.776Z,22.92
2016-12-06T17:56:32.312Z,21.96
2016-12-06T17:57:12.845Z,22.05
2016-12-06T17:57:53.457Z,22.25
2016-12-06T17:58:34.072Z,22.34
2016-12-06T17:59:14.593Z,22.53
2016-12-06T17:59:55.205Z,22.53
2016-12-06T18:00:35.719Z,22.53
2016-12-06T18:01:16.248Z,22.63
2016-12-06T18:01:56.788Z,22.34
2016-12-06T18:02:37.322Z,22.05
2016-12-06T18:03:17.871Z,21.96
2016-12-06T18:03:58.407Z,22.25
2016-12-06T18:04:39.262Z,22.63
